createdAt,value
2022-10-22T00:00:13.495Z,63.86
2022-10-22T00:01:15.475Z,62.85
2022-10-22T00:02:20.170Z,62.70
2022-10-22T00:03:22.350Z,62.90
2022-10-22T00:04:24.335Z,62.88
2022-10-22T00:05:26.284Z,62.53
2022-10-22T00:06:28.271Z,62.21
2022-10-22T00:07:30.680Z,61.73
2022-10-22T00:08:32.814Z,61.89
2022-10-22T00:09:34.791Z,62.04
2022-10-22T00:10:38.531Z,62.32
2022-10-22T00:11:41.169Z,62.86
2022-10-22T00:12:43.247Z,63.17
2022-10-22T00:14:53.352Z,63.20
2022-10-22T00:15:55.173Z,63.22
2022-10-22T00:16:57.020Z,63.21
2022-10-22T00:17:59.169Z,63.73
2022-10-22T00:19:01.203Z,63.30
2022-10-22T00:20:03.254Z,63.17
2022-10-22T00:21:06.085Z,63.01
2022-10-22T00:22:10.240Z,62.46
2022-10-22T00:23:12.240Z,62.78
2022-10-22T00:24:14.223Z,62.84
2022-10-22T00:25:17.235Z,62.74
2022-10-22T00:26:19.105Z,62.22
2022-10-22T00:27:21.218Z,63.08
2022-10-22T00:28:23.767Z,63.47
2022-10-22T00:29:25.832Z,63.94
2022-10-22T00:30:27.653Z,63.87
2022-10-22T00:31:29.627Z,64.27
2022-10-22T00:32:31.530Z,64.65
2022-10-22T00:33:34.087Z,64.94
2022-10-22T00:34:36.057Z,64.13
2022-10-22T00:35:38.091Z,63.10
2022-10-22T00:36:43.836Z,62.63
2022-10-22T00:37:45.777Z,62.61
2022-10-22T00:38:47.612Z,62.74
2022-10-22T00:39:49.542Z,62.75
2022-10-22T00:40:51.802Z,62.13
2022-10-22T00:41:55.648Z,62.64
2022-10-22T00:42:57.673Z,61.93
2022-10-22T00:44:02.094Z,62.16
2022-10-22T00:45:09.846Z,62.00
2022-10-22T00:46:11.785Z,61.50
2022-10-22T00:47:14.966Z,62.37
2022-10-22T00:48:33.655Z,61.97
2022-10-22T00:49:35.492Z,62.32
2022-10-22T00:50:43.339Z,62.52
2022-10-22T00:51:45.462Z,62.06
2022-10-22T00:52:47.889Z,62.45
2022-10-22T00:53:53.731Z,62.50
2022-10-22T00:54:55.818Z,62.46
2022-10-22T00:55:57.928Z,61.58
2022-10-22T00:57:00.337Z,61.32
2022-10-22T00:58:02.747Z,61.31
2022-10-22T00:59:04.825Z,61.66
2022-10-22T01:00:07.594Z,61.79
2022-10-22T01:01:17.017Z,61.05
2022-10-22T01:02:18.979Z,61.74
2022-10-22T01:03:21.440Z,61.65
2022-10-22T01:04:23.206Z,62.19
2022-10-22T01:05:31.018Z,62.48
2022-10-22T01:06:34.426Z,61.56
2022-10-22T01:07:47.085Z,62.06
2022-10-22T01:09:16.592Z,62.49
2022-10-22T01:10:36.492Z,61.95
2022-10-22T01:11:58.639Z,61.43
2022-10-22T01:13:00.513Z,61.14
2022-10-22T01:14:19.275Z,61.12
2022-10-22T01:15:33.794Z,62.41
2022-10-22T01:16:43.814Z,62.32
2022-10-22T01:18:23.949Z,62.64
2022-10-22T01:19:28.574Z,62.36
2022-10-22T01:20:56.887Z,62.70
2022-10-22T01:22:20.170Z,62.20
2022-10-22T01:23:36.397Z,62.70
2022-10-22T01:25:06.359Z,63.26
2022-10-22T01:26:32.935Z,63.96
2022-10-22T01:27:43.916Z,63.87
2022-10-22T01:29:00.940Z,63.46
2022-10-22T01:30:08.754Z,63.39
2022-10-22T01:31:13.845Z,62.73
2022-10-22T01:32:22.024Z,62.84
2022-10-22T01:33:25.574Z,63.22
2022-10-22T01:34:30.419Z,63.41
2022-10-22T01:35:39.118Z,63.70
2022-10-22T01:36:42.444Z,63.41
2022-10-22T01:37:55.148Z,63.23
2022-10-22T01:38:57.610Z,62.85
2022-10-22T01:40:01.686Z,62.98
2022-10-22T01:41:03.882Z,62.99
2022-10-22T01:42:06.217Z,63.71
2022-10-22T01:43:10.268Z,63.55
2022-10-22T01:45:52.775Z,63.89
2022-10-22T01:47:22.326Z,63.11
2022-10-22T01:48:42.829Z,63.45
2022-10-22T01:50:03.409Z,64.04
2022-10-22T01:51:23.688Z,63.48
2022-10-22T01:52:35.396Z,63.80
2022-10-22T01:54:05.927Z,63.58
2022-10-22T01:55:26.326Z,63.97
2022-10-22T01:56:30.842Z,63.89
2022-10-22T01:57:53.776Z,63.59
2022-10-22T01:59:13.827Z,63.79
2022-10-22T02:00:19.442Z,63.32
2022-10-22T02:01:37.609Z,63.33
2022-10-22T02:02:50.669Z,62.89
2022-10-22T02:04:16.148Z,63.51
2022-10-22T02:05:37.364Z,63.77
2022-10-22T02:06:42.800Z,63.75
2022-10-22T02:07:52.286Z,63.97
2022-10-22T02:08:55.838Z,64.22
2022-10-22T02:09:59.876Z,63.87
2022-10-22T02:11:02.952Z,63.28
2022-10-22T02:12:07.087Z,63.41
2022-10-22T02:13:12.387Z,63.23
2022-10-22T02:14:19.135Z,63.40
2022-10-22T02:15:24.033Z,63.97
2022-10-22T02:16:43.202Z,63.50
2022-10-22T02:17:46.831Z,63.29
2022-10-22T02:18:54.084Z,63.30
2022-10-22T02:20:08.116Z,63.58
2022-10-22T02:21:11.074Z,63.53
2022-10-22T02:22:13.285Z,63.52
2022-10-22T02:23:15.515Z,63.71
2022-10-22T02:24:18.778Z,64.24
2022-10-22T02:25:23.950Z,64.12
2022-10-22T02:26:34.870Z,63.95
2022-10-22T02:27:49.065Z,63.65
2022-10-22T02:29:00.505Z,64.75
2022-10-22T02:30:07.047Z,64.99
2022-10-22T02:31:17.143Z,65.08
2022-10-22T02:32:21.914Z,64.91
2022-10-22T02:33:39.019Z,65.01
2022-10-22T02:34:41.988Z,65.00
2022-10-22T02:35:46.268Z,65.34
2022-10-22T02:36:50.571Z,65.41
2022-10-22T02:37:55.561Z,65.80
2022-10-22T02:38:58.890Z,65.67
2022-10-22T02:40:00.755Z,65.66
2022-10-22T02:41:03.258Z,65.71
2022-10-22T02:42:05.220Z,65.32
2022-10-22T02:43:07.571Z,65.30
2022-10-22T02:44:11.126Z,65.08
2022-10-22T02:45:13.150Z,64.76
2022-10-22T02:46:15.254Z,65.43
2022-10-22T02:47:17.131Z,64.69
2022-10-22T02:49:26.035Z,64.59
2022-10-22T02:50:28.115Z,64.81
2022-10-22T02:51:31.020Z,65.16
2022-10-22T02:52:32.806Z,65.25
2022-10-22T02:53:34.729Z,65.31
2022-10-22T02:54:36.619Z,65.19
2022-10-22T02:55:38.531Z,65.06
2022-10-22T02:56:40.458Z,64.96
2022-10-22T02:57:42.756Z,65.21
2022-10-22T02:58:44.811Z,65.61
2022-10-22T02:59:46.659Z,65.18
2022-10-22T03:00:49.680Z,65.08
2022-10-22T03:01:51.856Z,65.38
2022-10-22T03:02:53.818Z,65.55
2022-10-22T03:03:55.725Z,65.20
2022-10-22T03:04:59.247Z,65.85
2022-10-22T03:06:01.204Z,65.67
2022-10-22T03:07:03.427Z,65.68
2022-10-22T03:08:05.475Z,65.43
2022-10-22T03:09:07.390Z,65.51
2022-10-22T03:10:09.950Z,65.78
2022-10-22T03:11:11.902Z,66.15
2022-10-22T03:12:13.894Z,65.55
2022-10-22T03:13:15.636Z,65.73
2022-10-22T03:14:17.510Z,65.70
2022-10-22T03:15:19.504Z,65.04
2022-10-22T03:16:21.676Z,64.96
2022-10-22T03:17:24.082Z,64.29
2022-10-22T03:18:26.014Z,64.57
2022-10-22T03:19:28.162Z,64.74
2022-10-22T03:20:30.051Z,64.21
2022-10-22T03:21:39.367Z,64.33
2022-10-22T03:22:43.824Z,64.10
2022-10-22T03:23:45.821Z,64.16
2022-10-22T03:24:51.371Z,64.28
2022-10-22T03:25:53.369Z,63.94
2022-10-22T03:26:55.379Z,64.13
2022-10-22T03:28:01.272Z,64.34
2022-10-22T03:29:03.256Z,64.76
2022-10-22T03:30:05.788Z,64.72
2022-10-22T03:31:07.846Z,64.57
2022-10-22T03:32:09.858Z,63.88
2022-10-22T03:33:11.943Z,63.68
2022-10-22T03:34:13.830Z,64.10
2022-10-22T03:35:16.310Z,64.60
2022-10-22T03:36:18.291Z,64.73
2022-10-22T03:37:20.636Z,64.43
2022-10-22T03:38:22.536Z,64.30
2022-10-22T03:39:24.524Z,63.85
2022-10-22T03:40:26.711Z,63.94
2022-10-22T03:41:29.331Z,63.83
2022-10-22T03:42:31.708Z,64.23
2022-10-22T03:43:35.625Z,64.56
2022-10-22T03:44:39.557Z,65.18
2022-10-22T03:45:41.730Z,64.82
2022-10-22T03:46:44.307Z,64.58
2022-10-22T03:47:46.324Z,64.30
2022-10-22T03:48:48.237Z,63.89
2022-10-22T03:49:50.626Z,64.24
2022-10-22T03:50:52.688Z,64.66
2022-10-22T03:51:54.886Z,64.43
2022-10-22T03:52:58.357Z,64.88
2022-10-22T03:54:00.330Z,64.64
2022-10-22T03:55:02.088Z,64.49
2022-10-22T03:56:08.831Z,64.51
2022-10-22T03:57:11.736Z,64.50
2022-10-22T03:58:13.589Z,63.65
2022-10-22T03:59:15.779Z,64.89
2022-10-22T04:00:17.941Z,64.78
2022-10-22T04:01:20.040Z,64.82
2022-10-22T04:02:22.150Z,65.56
2022-10-22T04:03:24.175Z,65.92
2022-10-22T04:04:28.260Z,65.57
2022-10-22T04:05:30.062Z,64.33
2022-10-22T04:06:31.971Z,64.79
2022-10-22T04:07:34.141Z,65.13
2022-10-22T04:08:36.541Z,64.71
2022-10-22T04:09:38.588Z,64.96
2022-10-22T04:10:40.471Z,65.09
2022-10-22T04:11:42.468Z,65.21
2022-10-22T04:12:47.883Z,65.22
2022-10-22T04:13:50.367Z,64.40
2022-10-22T04:14:52.238Z,64.56
2022-10-22T04:15:54.230Z,64.42
2022-10-22T04:16:58.649Z,64.98
2022-10-22T04:18:00.574Z,64.41
2022-10-22T04:19:02.706Z,64.89
2022-10-22T04:20:05.393Z,65.33
2022-10-22T04:21:09.173Z,65.60
2022-10-22T04:22:13.627Z,65.58
2022-10-22T04:23:15.469Z,65.73
2022-10-22T04:24:17.359Z,66.14
2022-10-22T04:25:19.861Z,66.05
2022-10-22T04:26:22.292Z,65.44
2022-10-22T04:27:24.286Z,65.50
2022-10-22T04:28:26.433Z,65.23
2022-10-22T04:29:28.324Z,65.33
2022-10-22T04:30:30.151Z,65.74
2022-10-22T04:31:32.190Z,65.59
2022-10-22T04:32:34.185Z,65.51
2022-10-22T04:33:36.203Z,65.45
2022-10-22T04:34:38.021Z,65.50
2022-10-22T04:35:40.268Z,65.27
2022-10-22T04:36:42.194Z,65.99
2022-10-22T04:37:44.027Z,65.56
2022-10-22T04:38:48.826Z,65.43
2022-10-22T04:39:50.779Z,65.83
2022-10-22T04:40:52.836Z,65.63
2022-10-22T04:41:54.671Z,65.53
2022-10-22T04:42:57.249Z,65.50
2022-10-22T04:44:00.359Z,65.30
2022-10-22T04:45:02.688Z,65.60
2022-10-22T04:46:04.820Z,65.37
2022-10-22T04:47:07.050Z,65.46
2022-10-22T04:48:08.930Z,65.01
2022-10-22T04:49:11.815Z,65.36
2022-10-22T04:50:14.145Z,65.61
2022-10-22T04:51:18.491Z,65.66
2022-10-22T04:52:20.664Z,65.16
2022-10-22T04:53:22.501Z,65.47
2022-10-22T04:54:26.756Z,65.61
2022-10-22T04:55:32.320Z,65.59
2022-10-22T04:56:35.265Z,66.29
2022-10-22T04:57:37.347Z,65.87
2022-10-22T04:58:40.032Z,65.57
2022-10-22T04:59:44.422Z,64.84
2022-10-22T05:00:46.348Z,65.07
2022-10-22T05:01:49.563Z,65.53
2022-10-22T05:02:51.801Z,64.97
2022-10-22T05:03:56.727Z,64.76
2022-10-22T05:04:58.719Z,64.44
2022-10-22T05:06:03.825Z,64.06
2022-10-22T05:07:05.906Z,64.37
2022-10-22T05:08:07.851Z,64.07
2022-10-22T05:09:15.353Z,64.18
2022-10-22T05:10:17.479Z,64.70
2022-10-22T05:11:21.736Z,64.58
2022-10-22T05:12:23.926Z,64.74
2022-10-22T05:13:26.068Z,64.76
2022-10-22T05:14:28.043Z,64.08
2022-10-22T05:15:29.967Z,64.34
2022-10-22T05:16:32.877Z,64.23
2022-10-22T05:17:38.658Z,64.40
2022-10-22T05:18:42.866Z,64.10
2022-10-22T05:19:45.170Z,64.21
2022-10-22T05:20:47.503Z,64.57
2022-10-22T05:21:49.558Z,64.26
2022-10-22T05:22:52.609Z,64.63
2022-10-22T05:23:55.283Z,65.14
2022-10-22T05:24:57.126Z,64.92
2022-10-22T05:26:03.553Z,65.12
2022-10-22T05:27:05.635Z,65.72
2022-10-22T05:28:07.588Z,65.72
2022-10-22T05:29:10.153Z,66.84
2022-10-22T05:30:12.363Z,67.28
2022-10-22T05:31:14.691Z,67.22
2022-10-22T05:32:16.666Z,67.14
2022-10-22T05:33:21.921Z,66.97
2022-10-22T05:34:26.046Z,67.23
2022-10-22T05:35:28.082Z,67.70
2022-10-22T05:36:30.138Z,66.74
2022-10-22T05:37:33.792Z,67.03
2022-10-22T05:38:36.249Z,66.22
2022-10-22T05:39:40.437Z,65.12
2022-10-22T05:40:42.317Z,65.69
2022-10-22T05:41:44.464Z,65.76
2022-10-22T05:42:46.494Z,65.77
2022-10-22T05:43:48.810Z,66.04
2022-10-22T05:44:51.165Z,65.93
2022-10-22T05:45:53.043Z,65.25
2022-10-22T05:46:55.334Z,65.10
2022-10-22T05:47:57.237Z,65.52
2022-10-22T05:49:02.403Z,64.99
2022-10-22T05:50:04.586Z,65.26
2022-10-22T05:51:09.181Z,65.25
2022-10-22T05:52:12.549Z,64.51
2022-10-22T05:53:14.432Z,64.92
2022-10-22T05:54:19.096Z,65.09
2022-10-22T05:55:20.887Z,64.79
2022-10-22T05:56:23.800Z,64.51
2022-10-22T05:57:25.573Z,64.58
2022-10-22T05:58:27.462Z,64.32
2022-10-22T05:59:29.248Z,63.87
2022-10-22T06:00:31.141Z,64.72
2022-10-22T06:01:35.599Z,64.08
2022-10-22T06:02:37.996Z,65.05
2022-10-22T06:03:40.198Z,64.88
2022-10-22T06:04:42.152Z,64.68
2022-10-22T06:05:44.113Z,63.68
2022-10-22T06:06:50.390Z,63.58
2022-10-22T06:07:52.413Z,63.88
2022-10-22T06:08:55.931Z,63.03
2022-10-22T06:09:57.910Z,63.23
2022-10-22T06:11:00.136Z,63.58
2022-10-22T06:12:02.945Z,63.80
2022-10-22T06:13:08.221Z,63.84
2022-10-22T06:14:10.819Z,64.30
2022-10-22T06:15:14.236Z,63.89
2022-10-22T06:16:16.268Z,63.71
2022-10-22T06:17:19.804Z,62.67
2022-10-22T06:18:22.146Z,63.14
2022-10-22T06:19:27.050Z,62.71
2022-10-22T06:20:29.150Z,62.03
2022-10-22T06:21:31.816Z,62.35
2022-10-22T06:22:34.100Z,61.99
2022-10-22T06:23:36.369Z,61.07
2022-10-22T06:24:40.491Z,61.16
2022-10-22T06:25:44.880Z,60.51
2022-10-22T06:26:50.780Z,60.42
2022-10-22T06:27:52.868Z,60.48
2022-10-22T06:28:56.910Z,60.89
2022-10-22T06:29:58.849Z,60.41
2022-10-22T06:31:02.274Z,61.36
2022-10-22T06:32:04.242Z,60.96
2022-10-22T06:33:06.111Z,60.74
2022-10-22T06:34:11.728Z,60.08
2022-10-22T06:35:13.744Z,60.40
2022-10-22T06:36:18.638Z,60.47
2022-10-22T06:37:20.581Z,61.33
2022-10-22T06:38:22.558Z,61.34
2022-10-22T06:39:24.584Z,61.88
2022-10-22T06:40:26.564Z,61.89
2022-10-22T06:41:28.896Z,60.75
2022-10-22T06:42:32.190Z,59.89
2022-10-22T06:43:34.304Z,58.34
2022-10-22T06:44:36.274Z,58.92
2022-10-22T06:45:38.395Z,58.73
2022-10-22T06:46:43.491Z,58.47
2022-10-22T06:47:47.436Z,55.89
2022-10-22T06:48:54.196Z,57.80
2022-10-22T06:49:56.202Z,56.65
2022-10-22T06:51:05.991Z,54.69
2022-10-22T06:52:07.909Z,53.05
2022-10-22T06:53:10.231Z,50.62
2022-10-22T06:54:12.458Z,50.65
2022-10-22T06:55:14.956Z,49.56
2022-10-22T06:56:21.517Z,49.08
2022-10-22T06:57:23.617Z,48.98
2022-10-22T06:58:25.522Z,48.73
2022-10-22T06:59:27.440Z,45.06
2022-10-22T07:00:29.455Z,42.90
2022-10-22T07:01:34.251Z,42.43
2022-10-22T07:02:36.382Z,41.72
2022-10-22T07:03:39.583Z,42.37
2022-10-22T07:04:41.493Z,41.52
2022-10-22T07:05:43.585Z,41.39
2022-10-22T07:06:45.565Z,41.89
2022-10-22T07:07:47.948Z,42.91
2022-10-22T07:08:50.685Z,43.36
2022-10-22T07:09:53.405Z,40.98
2022-10-22T07:10:56.759Z,40.87
2022-10-22T07:11:58.696Z,41.08
2022-10-22T07:13:00.687Z,41.01
2022-10-22T07:14:02.690Z,40.91
2022-10-22T07:15:04.832Z,38.49
2022-10-22T07:16:08.088Z,39.02
2022-10-22T07:17:10.273Z,38.48
2022-10-22T07:18:12.408Z,38.79
2022-10-22T07:19:14.960Z,37.23
2022-10-22T07:20:17.594Z,38.06
2022-10-22T07:21:20.883Z,37.40
2022-10-22T07:22:22.916Z,37.68
2022-10-22T07:23:25.132Z,36.47
2022-10-22T07:24:27.170Z,35.23
2022-10-22T07:25:29.054Z,35.13
2022-10-22T07:26:32.833Z,34.84
2022-10-22T07:27:34.860Z,35.21
2022-10-22T07:28:40.034Z,35.70
2022-10-22T07:29:42.325Z,35.12
2022-10-22T07:30:44.511Z,35.23
2022-10-22T07:31:46.470Z,36.26
2022-10-22T07:32:49.229Z,37.05
2022-10-22T07:33:53.688Z,36.85
2022-10-22T07:34:55.772Z,37.25
2022-10-22T07:36:01.166Z,36.98
2022-10-22T07:37:07.760Z,34.73
2022-10-22T07:38:10.517Z,34.22
2022-10-22T07:39:12.608Z,34.18
2022-10-22T07:40:14.673Z,33.66
2022-10-22T07:41:17.681Z,32.92
2022-10-22T07:42:19.780Z,32.52
2022-10-22T07:43:22.016Z,31.83
2022-10-22T07:44:23.850Z,32.57
2022-10-22T07:45:25.692Z,31.96
2022-10-22T07:46:28.062Z,31.33
2022-10-22T07:47:30.078Z,31.95
2022-10-22T07:48:32.326Z,30.84
2022-10-22T07:49:34.360Z,31.01
2022-10-22T07:50:36.368Z,30.49
2022-10-22T07:51:38.361Z,30.47
2022-10-22T07:52:40.490Z,30.54
2022-10-22T07:53:42.863Z,29.93
2022-10-22T07:54:44.948Z,28.99
2022-10-22T07:55:51.220Z,28.04
2022-10-22T07:56:53.128Z,28.03
2022-10-22T07:57:55.274Z,28.11
2022-10-22T07:58:57.359Z,26.73
2022-10-22T07:59:59.714Z,26.70
2022-10-22T08:01:02.501Z,27.47
2022-10-22T08:02:04.627Z,26.52
2022-10-22T08:03:06.523Z,27.38
2022-10-22T08:04:10.088Z,26.85
2022-10-22T08:05:14.449Z,26.61
2022-10-22T08:06:16.606Z,25.05
2022-10-22T08:07:19.689Z,25.20
2022-10-22T08:08:24.885Z,25.88
2022-10-22T08:09:29.357Z,26.32
2022-10-22T08:10:36.482Z,26.36
2022-10-22T08:11:39.545Z,25.55
2022-10-22T08:12:42.399Z,25.08
2022-10-22T08:13:45.851Z,26.18
2022-10-22T08:14:48.867Z,24.90
2022-10-22T08:15:52.471Z,24.27
2022-10-22T08:16:58.448Z,24.60
2022-10-22T08:18:00.487Z,24.71
2022-10-22T08:19:02.504Z,24.88
2022-10-22T08:20:04.619Z,24.41
2022-10-22T08:21:06.888Z,24.98
2022-10-22T08:22:08.820Z,24.45
2022-10-22T08:23:11.073Z,23.09
2022-10-22T08:24:15.862Z,24.73
2022-10-22T08:25:18.621Z,24.33
2022-10-22T08:26:21.101Z,24.33
2022-10-22T08:27:23.655Z,24.72
2022-10-22T08:28:26.526Z,24.62
2022-10-22T08:29:28.595Z,23.66
2022-10-22T08:30:30.595Z,22.99
2022-10-22T08:31:32.544Z,23.96
2022-10-22T08:32:37.240Z,23.25
2022-10-22T08:33:40.206Z,23.35
2022-10-22T08:34:42.198Z,23.47
2022-10-22T08:35:49.716Z,23.19
2022-10-22T08:36:51.865Z,22.88
2022-10-22T08:37:54.409Z,22.81
2022-10-22T08:38:56.595Z,24.41
2022-10-22T08:39:58.484Z,23.92
2022-10-22T08:41:13.589Z,22.47
2022-10-22T08:42:40.290Z,23.37
2022-10-22T08:43:52.881Z,23.14
2022-10-22T08:44:57.800Z,24.02
2022-10-22T08:46:13.664Z,22.93
2022-10-22T08:47:40.360Z,22.91
2022-10-22T08:48:45.167Z,23.87
2022-10-22T08:49:47.595Z,22.93
2022-10-22T08:50:53.481Z,23.11
2022-10-22T08:51:57.748Z,22.66
2022-10-22T08:53:07.585Z,22.60
2022-10-22T08:54:48.576Z,22.73
2022-10-22T08:55:54.052Z,22.40
2022-10-22T08:57:19.028Z,22.54
2022-10-22T08:58:38.988Z,21.92
2022-10-22T08:59:48.237Z,22.34
2022-10-22T09:01:17.982Z,22.25
2022-10-22T09:02:41.236Z,22.85
2022-10-22T09:03:49.212Z,21.56
2022-10-22T09:05:01.751Z,23.66
2022-10-22T09:06:12.623Z,22.38
2022-10-22T09:07:14.705Z,22.41
2022-10-22T09:08:19.263Z,21.72
2022-10-22T09:09:23.783Z,21.01
2022-10-22T09:10:29.545Z,21.16
2022-10-22T09:11:38.251Z,21.10
2022-10-22T09:12:40.442Z,20.77
2022-10-22T09:13:44.945Z,21.03
2022-10-22T09:14:46.876Z,20.95
2022-10-22T09:15:59.208Z,20.49
2022-10-22T09:17:38.800Z,21.08
2022-10-22T09:18:46.924Z,20.87
2022-10-22T09:20:27.028Z,21.12
2022-10-22T09:22:06.363Z,21.16
2022-10-22T09:23:40.062Z,21.14
2022-10-22T09:24:47.860Z,21.71
2022-10-22T09:25:52.021Z,20.94
2022-10-22T09:26:56.946Z,20.51
2022-10-22T09:27:59.700Z,20.44
2022-10-22T09:29:02.841Z,21.53
2022-10-22T09:30:05.413Z,19.72
2022-10-22T09:31:14.580Z,20.75
2022-10-22T09:32:17.691Z,20.11
2022-10-22T09:33:26.642Z,20.89
2022-10-22T09:34:32.769Z,19.75
2022-10-22T09:35:52.933Z,22.25
2022-10-22T09:37:06.594Z,20.56
2022-10-22T09:38:11.895Z,22.88
2022-10-22T09:39:52.287Z,20.51
2022-10-22T09:40:57.024Z,20.55
2022-10-22T09:41:59.123Z,20.18
2022-10-22T09:43:01.329Z,20.54
2022-10-22T09:44:07.278Z,20.08
2022-10-22T09:45:25.829Z,19.68
2022-10-22T09:46:30.163Z,20.95
2022-10-22T09:48:02.616Z,20.99
2022-10-22T09:49:12.953Z,21.17
2022-10-22T09:50:37.802Z,20.65
2022-10-22T09:51:42.642Z,20.49
2022-10-22T09:52:45.103Z,22.08
2022-10-22T09:53:57.877Z,21.61
2022-10-22T09:55:02.790Z,20.32
2022-10-22T09:56:17.023Z,19.94
2022-10-22T09:57:23.324Z,20.31
2022-10-22T09:58:26.013Z,20.52
2022-10-22T09:59:33.940Z,21.64
2022-10-22T10:00:46.179Z,21.21
2022-10-22T10:02:04.960Z,22.78
2022-10-22T10:03:22.366Z,21.67
2022-10-22T10:05:31.461Z,22.83
2022-10-22T10:06:35.210Z,21.78
2022-10-22T10:07:40.275Z,22.23
2022-10-22T10:08:42.609Z,23.35
2022-10-22T10:09:44.730Z,22.77
2022-10-22T10:11:00.076Z,23.17
2022-10-22T10:12:17.634Z,23.37
2022-10-22T10:13:46.821Z,23.66
2022-10-22T10:15:05.725Z,23.53
2022-10-22T10:16:41.050Z,23.38
2022-10-22T10:18:25.480Z,24.12
2022-10-22T10:20:00.027Z,23.12
2022-10-22T10:21:44.373Z,23.39
2022-10-22T10:23:02.698Z,23.92
2022-10-22T10:24:25.239Z,22.23
2022-10-22T10:25:40.192Z,22.38
2022-10-22T10:27:23.911Z,21.67
2022-10-22T10:28:59.484Z,22.27
2022-10-22T10:30:10.295Z,22.27
2022-10-22T10:31:31.561Z,22.24
2022-10-22T10:32:52.588Z,21.80
2022-10-22T10:34:17.388Z,22.47
2022-10-22T10:35:31.863Z,21.58
2022-10-22T10:36:55.851Z,21.56
2022-10-22T10:38:31.617Z,21.37
2022-10-22T10:39:55.387Z,21.35
2022-10-22T10:41:19.191Z,20.73
2022-10-22T10:42:30.198Z,20.85
2022-10-22T10:43:44.228Z,21.82
2022-10-22T10:45:27.324Z,21.83
2022-10-22T10:47:08.293Z,24.15
2022-10-22T10:48:22.519Z,21.75
2022-10-22T10:49:27.074Z,22.29
2022-10-22T10:50:34.077Z,22.49
2022-10-22T10:52:16.289Z,22.51
2022-10-22T10:53:58.974Z,22.65
2022-10-22T10:55:22.779Z,22.67
2022-10-22T10:56:39.052Z,22.69
2022-10-22T10:57:54.385Z,22.89
2022-10-22T10:59:32.615Z,22.97
2022-10-22T11:00:47.862Z,21.95
2022-10-22T11:02:20.844Z,22.99
2022-10-22T11:03:34.773Z,22.12
2022-10-22T11:04:55.672Z,23.03
2022-10-22T11:06:03.859Z,23.06
2022-10-22T11:07:16.880Z,23.51
2022-10-22T11:08:27.370Z,23.05
2022-10-22T11:09:44.819Z,23.63
2022-10-22T11:11:01.724Z,23.65
2022-10-22T11:12:11.021Z,24.04
2022-10-22T11:13:49.238Z,24.38
2022-10-22T11:15:37.636Z,24.32
2022-10-22T11:16:46.686Z,24.73
2022-10-22T11:17:49.290Z,25.02
2022-10-22T11:19:22.982Z,25.41
2022-10-22T11:20:52.466Z,25.78
2022-10-22T11:22:05.447Z,25.52
2022-10-22T11:23:20.651Z,27.87
2022-10-22T11:24:28.612Z,26.72
2022-10-22T11:25:44.754Z,25.79
2022-10-22T11:26:54.159Z,26.81
2022-10-22T11:28:11.370Z,27.16
2022-10-22T11:29:19.652Z,28.97
2022-10-22T11:30:24.764Z,27.73
2022-10-22T11:31:27.399Z,28.27
2022-10-22T11:32:30.378Z,27.24
2022-10-22T11:34:04.746Z,27.85
2022-10-22T11:35:20.210Z,28.37
2022-10-22T11:36:28.498Z,27.87
2022-10-22T11:37:39.217Z,28.55
2022-10-22T11:38:41.939Z,30.44
2022-10-22T11:39:46.278Z,30.06
2022-10-22T11:41:01.922Z,29.17
2022-10-22T11:42:10.805Z,30.33
2022-10-22T11:43:28.489Z,31.77
2022-10-22T11:44:32.700Z,30.36
2022-10-22T11:45:35.914Z,30.95
2022-10-22T11:46:44.377Z,30.39
2022-10-22T11:48:15.625Z,30.55
2022-10-22T11:49:22.397Z,30.23
2022-10-22T11:50:25.974Z,30.13
2022-10-22T11:51:32.635Z,31.38
2022-10-22T11:52:37.188Z,31.01
2022-10-22T11:53:39.445Z,30.07
2022-10-22T11:54:45.232Z,33.18
2022-10-22T11:55:49.388Z,32.88
2022-10-22T11:57:17.393Z,33.26
2022-10-22T11:58:52.144Z,32.78
2022-10-22T11:59:58.100Z,33.07
2022-10-22T12:01:03.551Z,31.24
2022-10-22T12:02:23.342Z,32.11
2022-10-22T12:03:44.112Z,31.73
2022-10-22T12:04:46.065Z,31.68
2022-10-22T12:06:11.902Z,32.29
2022-10-22T12:07:55.060Z,31.84
2022-10-22T12:09:01.923Z,32.55
2022-10-22T12:10:19.116Z,32.66
2022-10-22T12:11:41.242Z,32.83
2022-10-22T12:12:43.763Z,32.18
2022-10-22T12:13:52.435Z,32.33
2022-10-22T12:14:57.975Z,31.48
2022-10-22T12:16:03.978Z,32.31
2022-10-22T12:17:12.655Z,31.61
2022-10-22T12:18:15.818Z,31.77
2022-10-22T12:19:27.110Z,32.18
2022-10-22T12:20:30.208Z,31.87
2022-10-22T12:21:33.807Z,31.92
2022-10-22T12:22:39.769Z,32.23
2022-10-22T12:23:42.652Z,33.16
2022-10-22T12:24:47.649Z,31.89
2022-10-22T12:25:49.626Z,32.60
2022-10-22T12:26:52.974Z,32.70
2022-10-22T12:27:59.700Z,33.18
2022-10-22T12:29:07.045Z,32.91
2022-10-22T12:30:24.311Z,32.90
2022-10-22T12:31:26.541Z,34.68
2022-10-22T12:32:38.252Z,32.92
2022-10-22T12:33:40.493Z,32.92
2022-10-22T12:34:52.845Z,33.27
2022-10-22T12:35:57.874Z,33.72
2022-10-22T12:37:00.085Z,33.27
2022-10-22T12:38:08.542Z,33.15
2022-10-22T12:39:14.579Z,32.17
2022-10-22T12:40:17.725Z,31.91
2022-10-22T12:41:21.258Z,34.37
2022-10-22T12:42:23.988Z,33.09
2022-10-22T12:43:30.631Z,31.66
2022-10-22T12:44:36.078Z,31.74
2022-10-22T12:45:39.508Z,32.66
2022-10-22T12:46:43.435Z,32.60
2022-10-22T12:47:54.123Z,32.63
2022-10-22T12:49:02.930Z,31.92
2022-10-22T12:50:05.949Z,32.79
2022-10-22T12:51:09.774Z,32.49
2022-10-22T12:52:17.857Z,32.65
2022-10-22T12:53:33.440Z,32.50
2022-10-22T12:54:35.736Z,33.81
2022-10-22T12:55:39.037Z,32.54
2022-10-22T12:56:40.966Z,31.79
2022-10-22T12:57:43.027Z,33.21
2022-10-22T12:58:53.136Z,32.51
2022-10-22T12:59:55.240Z,33.25
2022-10-22T13:01:02.358Z,33.57
2022-10-22T13:02:24.716Z,33.05
2022-10-22T13:03:30.541Z,33.03
2022-10-22T13:04:37.145Z,32.81
2022-10-22T13:05:39.930Z,33.14
2022-10-22T13:06:46.781Z,32.77
2022-10-22T13:07:51.949Z,32.25
2022-10-22T13:08:56.499Z,32.95
2022-10-22T13:10:01.522Z,32.42
2022-10-22T13:11:08.714Z,33.69
2022-10-22T13:12:16.769Z,32.79
2022-10-22T13:13:46.500Z,33.10
2022-10-22T13:14:48.506Z,32.28
2022-10-22T13:15:50.437Z,32.19
2022-10-22T13:17:10.473Z,32.33
2022-10-22T13:18:19.722Z,32.28
2022-10-22T13:19:48.169Z,33.58
2022-10-22T13:20:52.297Z,33.86
2022-10-22T13:21:54.777Z,32.80
2022-10-22T13:23:07.815Z,32.99
2022-10-22T13:24:27.741Z,32.87
2022-10-22T13:25:31.774Z,33.14
2022-10-22T13:26:36.544Z,33.20
2022-10-22T13:27:44.382Z,33.34
2022-10-22T13:28:57.642Z,33.96
2022-10-22T13:30:03.273Z,33.48
2022-10-22T13:31:46.038Z,32.92
2022-10-22T13:32:57.677Z,33.29
2022-10-22T13:34:09.844Z,33.91
2022-10-22T13:35:20.906Z,32.48
2022-10-22T13:36:23.849Z,33.72
2022-10-22T13:37:26.277Z,33.72
2022-10-22T13:38:28.938Z,32.80
2022-10-22T13:39:32.974Z,33.02
2022-10-22T13:40:34.916Z,32.88
2022-10-22T13:42:41.878Z,32.84
2022-10-22T13:43:43.934Z,32.80
2022-10-22T13:44:45.921Z,33.47
2022-10-22T13:45:52.307Z,33.13
2022-10-22T13:46:56.386Z,32.69
2022-10-22T13:47:58.331Z,32.94
2022-10-22T13:49:00.619Z,33.49
2022-10-22T13:50:07.528Z,32.85
2022-10-22T13:51:18.944Z,32.64
2022-10-22T13:52:34.581Z,33.94
2022-10-22T13:53:36.560Z,33.33
2022-10-22T13:54:39.219Z,32.72
2022-10-22T13:55:41.096Z,33.05
2022-10-22T13:56:42.990Z,33.32
2022-10-22T13:57:45.410Z,32.96
2022-10-22T13:58:48.388Z,32.90
2022-10-22T13:59:50.335Z,32.73
2022-10-22T14:00:55.983Z,32.56
2022-10-22T14:01:57.819Z,32.62
2022-10-22T14:03:00.330Z,33.59
2022-10-22T14:04:05.303Z,33.16
2022-10-22T14:05:09.828Z,33.73
2022-10-22T14:06:16.175Z,33.19
2022-10-22T14:07:18.273Z,33.06
2022-10-22T14:08:21.832Z,34.38
2022-10-22T14:09:23.834Z,33.79
2022-10-22T14:10:26.014Z,34.07
2022-10-22T14:11:28.478Z,33.48
2022-10-22T14:12:30.426Z,33.57
2022-10-22T14:13:32.467Z,33.16
2022-10-22T14:14:35.194Z,33.26
2022-10-22T14:15:37.620Z,33.14
2022-10-22T14:16:39.553Z,33.22
2022-10-22T14:17:49.644Z,33.39
2022-10-22T14:18:51.875Z,34.80
2022-10-22T14:19:54.254Z,34.34
2022-10-22T14:20:59.645Z,32.82
2022-10-22T14:22:01.810Z,32.98
2022-10-22T14:23:14.915Z,33.24
2022-10-22T14:24:17.025Z,33.67
2022-10-22T14:25:25.238Z,33.36
2022-10-22T14:26:33.009Z,34.24
2022-10-22T14:27:34.928Z,34.23
2022-10-22T14:28:41.224Z,33.13